aviador You're here:

KMPO Decoded Metar

MT. POCONO in PA, USA
Report Time2018-01-17 17:53:00
UTC Time2018-01-17 18:13:59
Flight Rules vfr VFR
Wind310° at 13 kt
W.Decomp.*RWY 31: 12.7 kt HW 2.9 kt RCW
RWY 05: 0.7 kt HW 13 kt LCW
W.Rank310° ranks 1
Current wind is above 310° avg. (9.4)
Visibility9999 m
Phenomena:N/A
Clouds:Overcast 046 Hf
Expected CloudBase > 1,200 ft AGL from Temp-Dew spread
Ceiling4,600 ft
Temp-9°C (ISA -20)
Dew Point-12°C (79% RH)
AAT-16.9°C
QNH1021 hPa
Density Alt-853 ft
Elevation1,893 ft
Report Wrong Elevation
Raw Report
KMPO 171753Z AUTO 31013KT 10SM OVC046 M09/M12 A3015 RMK AO2 SLP239
60001 T10941122 11050 21094 58019=

Extra information for KMPO:More info

Metar Taf Metar & Taf Last 4 Metars F.Rules Stats Wind Profile Meteogram Temp Stats Airport Information Weather charts Add Link Nearby VenuesMetar ALERT Operation Metar Decoded Social comments

AIRNAV info for KMPO